sensor_id;sensor_type;location;lat;lon;timestamp;P1;durP1;ratioP1;P2;durP2;ratioP2
75375;SDS011;63958;52.004;5.908;2022-12-22T00:00:16;4.15;;;3.35;;
75375;SDS011;63958;52.004;5.908;2022-12-22T00:02:57;4.22;;;3.53;;
75375;SDS011;63958;52.004;5.908;2022-12-22T00:05:41;6.43;;;5.10;;
75375;SDS011;63958;52.004;5.908;2022-12-22T00:08:23;4.13;;;3.50;;
75375;SDS011;63958;52.004;5.908;2022-12-22T00:11:05;4.30;;;3.38;;
75375;SDS011;63958;52.004;5.908;2022-12-22T00:13:49;4.70;;;3.90;;
75375;SDS011;63958;52.004;5.908;2022-12-22T00:16:31;4.63;;;3.78;;
75375;SDS011;63958;52.004;5.908;2022-12-22T00:19:14;5.32;;;3.88;;
75375;SDS011;63958;52.004;5.908;2022-12-22T00:21:59;4.27;;;3.83;;
75375;SDS011;63958;52.004;5.908;2022-12-22T00:24:41;4.05;;;3.40;;
75375;SDS011;63958;52.004;5.908;2022-12-22T00:27:24;5.95;;;5.25;;
75375;SDS011;63958;52.004;5.908;2022-12-22T00:30:11;5.90;;;4.78;;
75375;SDS011;63958;52.004;5.908;2022-12-22T00:32:53;5.50;;;4.78;;
75375;SDS011;63958;52.004;5.908;2022-12-22T00:35:34;3.85;;;3.40;;
75375;SDS011;63958;52.004;5.908;2022-12-22T00:38:20;3.70;;;3.22;;
75375;SDS011;63958;52.004;5.908;2022-12-22T00:41:02;3.30;;;2.40;;
75375;SDS011;63958;52.004;5.908;2022-12-22T00:43:44;3.38;;;3.00;;
75375;SDS011;63958;52.004;5.908;2022-12-22T00:46:25;3.92;;;3.38;;
75375;SDS011;63958;52.004;5.908;2022-12-22T00:49:07;3.97;;;2.97;;
75375;SDS011;63958;52.004;5.908;2022-12-22T00:51:49;4.30;;;3.63;;
75375;SDS011;63958;52.004;5.908;2022-12-22T00:54:33;9.27;;;6.78;;
75375;SDS011;63958;52.004;5.908;2022-12-22T00:57:15;4.82;;;4.32;;
75375;SDS011;63958;52.004;5.908;2022-12-22T00:59:58;3.60;;;3.30;;
75375;SDS011;63958;52.004;5.908;2022-12-22T01:02:40;4.40;;;3.73;;
75375;SDS011;63958;52.004;5.908;2022-12-22T01:05:21;6.32;;;4.93;;
75375;SDS011;63958;52.004;5.908;2022-12-22T01:08:03;5.28;;;4.28;;
75375;SDS011;63958;52.004;5.908;2022-12-22T01:10:47;4.10;;;3.70;;
75375;SDS011;63958;52.004;5.908;2022-12-22T01:13:29;6.65;;;4.00;;
75375;SDS011;63958;52.004;5.908;2022-12-22T01:16:11;4.18;;;3.78;;
75375;SDS011;63958;52.004;5.908;2022-12-22T01:18:53;4.47;;;3.58;;
75375;SDS011;63958;52.004;5.908;2022-12-22T01:21:34;2.95;;;2.60;;
75375;SDS011;63958;52.004;5.908;2022-12-22T01:24:16;2.67;;;2.40;;
75375;SDS011;63958;52.004;5.908;2022-12-22T01:27:01;3.78;;;3.38;;
75375;SDS011;63958;52.004;5.908;2022-12-22T01:29:42;3.55;;;3.10;;
75375;SDS011;63958;52.004;5.908;2022-12-22T01:32:24;4.28;;;3.75;;
75375;SDS011;63958;52.004;5.908;2022-12-22T01:35:07;3.08;;;2.60;;
75375;SDS011;63958;52.004;5.908;2022-12-22T01:37:55;2.30;;;1.90;;
75375;SDS011;63958;52.004;5.908;2022-12-22T01:40:36;2.72;;;2.42;;
75375;SDS011;63958;52.004;5.908;2022-12-22T01:43:21;2.85;;;2.15;;
75375;SDS011;63958;52.004;5.908;2022-12-22T01:46:21;3.03;;;2.33;;
75375;SDS011;63958;52.004;5.908;2022-12-22T01:49:06;2.45;;;1.90;;
75375;SDS011;63958;52.004;5.908;2022-12-22T01:51:50;2.70;;;2.00;;
75375;SDS011;63958;52.004;5.908;2022-12-22T01:54:31;3.40;;;2.00;;
75375;SDS011;63958;52.004;5.908;2022-12-22T01:57:13;2.38;;;1.98;;
75375;SDS011;63958;52.004;5.908;2022-12-22T01:59:57;3.00;;;2.60;;
75375;SDS011;63958;52.004;5.908;2022-12-22T02:02:39;3.92;;;3.35;;
75375;SDS011;63958;52.004;5.908;2022-12-22T02:05:21;8.02;;;7.13;;
75375;SDS011;63958;52.004;5.908;2022-12-22T02:08:06;4.40;;;4.00;;
75375;SDS011;63958;52.004;5.908;2022-12-22T02:11:01;4.35;;;3.38;;
75375;SDS011;63958;52.004;5.908;2022-12-22T02:13:53;2.72;;;2.30;;
75375;SDS011;63958;52.004;5.908;2022-12-22T02:16:49;2.63;;;2.30;;
75375;SDS011;63958;52.004;5.908;2022-12-22T02:19:42;2.75;;;2.35;;
75375;SDS011;63958;52.004;5.908;2022-12-22T02:22:41;2.65;;;2.33;;
75375;SDS011;63958;52.004;5.908;2022-12-22T02:25:30;2.10;;;1.80;;
75375;SDS011;63958;52.004;5.908;2022-12-22T02:28:21;2.53;;;2.15;;
75375;SDS011;63958;52.004;5.908;2022-12-22T02:31:04;2.55;;;2.10;;
75375;SDS011;63958;52.004;5.908;2022-12-22T02:33:46;2.08;;;1.77;;
75375;SDS011;63958;52.004;5.908;2022-12-22T02:36:28;3.50;;;3.08;;
75375;SDS011;63958;52.004;5.908;2022-12-22T02:39:15;5.03;;;4.07;;
75375;SDS011;63958;52.004;5.908;2022-12-22T02:42:07;3.63;;;3.33;;
75375;SDS011;63958;52.004;5.908;2022-12-22T02:45:03;2.78;;;2.42;;
75375;SDS011;63958;52.004;5.908;2022-12-22T02:47:54;3.50;;;3.05;;
75375;SDS011;63958;52.004;5.908;2022-12-22T02:50:44;4.47;;;3.88;;
75375;SDS011;63958;52.004;5.908;2022-12-22T02:53:29;3.42;;;2.92;;
75375;SDS011;63958;52.004;5.908;2022-12-22T02:56:11;4.20;;;3.70;;
75375;SDS011;63958;52.004;5.908;2022-12-22T02:58:53;2.43;;;1.93;;
75375;SDS011;63958;52.004;5.908;2022-12-22T03:01:37;2.50;;;2.10;;
75375;SDS011;63958;52.004;5.908;2022-12-22T03:04:20;2.40;;;2.15;;
75375;SDS011;63958;52.004;5.908;2022-12-22T03:07:02;2.63;;;2.28;;
75375;SDS011;63958;52.004;5.908;2022-12-22T03:09:43;2.47;;;1.92;;
75375;SDS011;63958;52.004;5.908;2022-12-22T03:12:24;2.00;;;1.70;;
75375;SDS011;63958;52.004;5.908;2022-12-22T03:15:06;1.75;;;1.55;;
75375;SDS011;63958;52.004;5.908;2022-12-22T03:17:50;1.83;;;1.50;;
75375;SDS011;63958;52.004;5.908;2022-12-22T03:20:32;2.17;;;1.77;;
75375;SDS011;63958;52.004;5.908;2022-12-22T03:23:13;2.00;;;1.80;;
75375;SDS011;63958;52.004;5.908;2022-12-22T03:25:54;2.70;;;2.05;;
75375;SDS011;63958;52.004;5.908;2022-12-22T03:28:24;1.88;;;1.50;;
75375;SDS011;63958;52.004;5.908;2022-12-22T03:30:55;1.83;;;1.48;;
75375;SDS011;63958;52.004;5.908;2022-12-22T03:33:30;1.70;;;1.45;;
75375;SDS011;63958;52.004;5.908;2022-12-22T03:36:00;2.08;;;1.60;;
75375;SDS011;63958;52.004;5.908;2022-12-22T03:38:29;2.58;;;2.15;;
75375;SDS011;63958;52.004;5.908;2022-12-22T03:40:58;2.47;;;1.80;;
75375;SDS011;63958;52.004;5.908;2022-12-22T03:43:27;1.92;;;1.70;;
75375;SDS011;63958;52.004;5.908;2022-12-22T03:46:09;2.28;;;1.83;;
75375;SDS011;63958;52.004;5.908;2022-12-22T03:48:55;1.35;;;1.17;;
75375;SDS011;63958;52.004;5.908;2022-12-22T03:51:41;1.60;;;1.38;;
75375;SDS011;63958;52.004;5.908;2022-12-22T03:54:11;1.95;;;1.60;;
75375;SDS011;63958;52.004;5.908;2022-12-22T03:56:41;1.50;;;1.20;;
75375;SDS011;63958;52.004;5.908;2022-12-22T03:59:10;1.90;;;1.60;;
75375;SDS011;63958;52.004;5.908;2022-12-22T04:01:41;1.70;;;1.40;;
75375;SDS011;63958;52.004;5.908;2022-12-22T04:04:14;2.00;;;1.45;;
75375;SDS011;63958;52.004;5.908;2022-12-22T04:06:45;1.40;;;1.20;;
75375;SDS011;63958;52.004;5.908;2022-12-22T04:09:14;1.75;;;1.40;;
75375;SDS011;63958;52.004;5.908;2022-12-22T04:11:43;2.60;;;1.50;;
75375;SDS011;63958;52.004;5.908;2022-12-22T04:14:24;1.67;;;1.48;;
75375;SDS011;63958;52.004;5.908;2022-12-22T04:16:53;2.42;;;2.17;;
75375;SDS011;63958;52.004;5.908;2022-12-22T04:19:24;2.20;;;1.83;;
75375;SDS011;63958;52.004;5.908;2022-12-22T04:21:53;2.27;;;1.97;;
75375;SDS011;63958;52.004;5.908;2022-12-22T04:24:22;2.00;;;1.65;;
75375;SDS011;63958;52.004;5.908;2022-12-22T04:26:51;2.20;;;1.75;;
75375;SDS011;63958;52.004;5.908;2022-12-22T04:29:20;2.30;;;1.90;;
75375;SDS011;63958;52.004;5.908;2022-12-22T04:31:49;1.65;;;1.50;;
75375;SDS011;63958;52.004;5.908;2022-12-22T04:34:18;2.58;;;1.95;;
75375;SDS011;63958;52.004;5.908;2022-12-22T04:36:50;2.75;;;2.20;;
75375;SDS011;63958;52.004;5.908;2022-12-22T04:39:19;2.07;;;1.80;;
75375;SDS011;63958;52.004;5.908;2022-12-22T04:41:47;1.70;;;1.60;;
75375;SDS011;63958;52.004;5.908;2022-12-22T04:44:16;1.27;;;1.17;;
75375;SDS011;63958;52.004;5.908;2022-12-22T04:46:45;1.40;;;1.27;;
75375;SDS011;63958;52.004;5.908;2022-12-22T04:49:14;1.67;;;1.20;;
75375;SDS011;63958;52.004;5.908;2022-12-22T04:51:43;1.38;;;1.27;;
75375;SDS011;63958;52.004;5.908;2022-12-22T04:54:15;1.65;;;1.20;;
75375;SDS011;63958;52.004;5.908;2022-12-22T04:56:44;1.70;;;1.40;;
75375;SDS011;63958;52.004;5.908;2022-12-22T04:59:12;1.20;;;1.10;;
75375;SDS011;63958;52.004;5.908;2022-12-22T05:01:41;1.55;;;1.20;;
75375;SDS011;63958;52.004;5.908;2022-12-22T05:04:10;1.42;;;1.15;;
75375;SDS011;63958;52.004;5.908;2022-12-22T05:06:39;1.25;;;1.02;;
75375;SDS011;63958;52.004;5.908;2022-12-22T05:09:08;2.40;;;2.00;;
75375;SDS011;63958;52.004;5.908;2022-12-22T05:11:40;2.30;;;1.70;;
75375;SDS011;63958;52.004;5.908;2022-12-22T05:14:09;1.57;;;1.30;;
75375;SDS011;63958;52.004;5.908;2022-12-22T05:16:38;1.02;;;0.93;;
75375;SDS011;63958;52.004;5.908;2022-12-22T05:19:07;1.15;;;1.05;;
75375;SDS011;63958;52.004;5.908;2022-12-22T05:21:35;1.98;;;1.60;;
75375;SDS011;63958;52.004;5.908;2022-12-22T05:24:05;1.95;;;1.45;;
75375;SDS011;63958;52.004;5.908;2022-12-22T05:26:34;1.70;;;1.40;;
75375;SDS011;63958;52.004;5.908;2022-12-22T05:29:05;1.58;;;1.45;;
75375;SDS011;63958;52.004;5.908;2022-12-22T05:31:34;2.00;;;1.50;;
75375;SDS011;63958;52.004;5.908;2022-12-22T05:34:03;1.98;;;1.60;;
75375;SDS011;63958;52.004;5.908;2022-12-22T05:36:32;2.42;;;1.50;;
75375;SDS011;63958;52.004;5.908;2022-12-22T05:39:01;1.70;;;1.52;;
75375;SDS011;63958;52.004;5.908;2022-12-22T05:41:30;2.28;;;1.60;;
75375;SDS011;63958;52.004;5.908;2022-12-22T05:43:59;1.80;;;1.30;;
75375;SDS011;63958;52.004;5.908;2022-12-22T05:46:30;2.35;;;1.85;;
75375;SDS011;63958;52.004;5.908;2022-12-22T05:48:59;1.90;;;1.50;;
75375;SDS011;63958;52.004;5.908;2022-12-22T05:51:28;1.70;;;1.20;;
75375;SDS011;63958;52.004;5.908;2022-12-22T05:53:57;2.10;;;1.67;;
75375;SDS011;63958;52.004;5.908;2022-12-22T05:56:26;2.05;;;1.30;;
75375;SDS011;63958;52.004;5.908;2022-12-22T05:58:55;2.58;;;1.70;;
75375;SDS011;63958;52.004;5.908;2022-12-22T06:01:24;2.28;;;1.60;;
75375;SDS011;63958;52.004;5.908;2022-12-22T06:03:55;1.77;;;1.45;;
75375;SDS011;63958;52.004;5.908;2022-12-22T06:06:24;2.20;;;1.60;;
75375;SDS011;63958;52.004;5.908;2022-12-22T06:08:53;1.58;;;1.30;;
75375;SDS011;63958;52.004;5.908;2022-12-22T06:11:22;2.03;;;1.50;;
75375;SDS011;63958;52.004;5.908;2022-12-22T06:13:51;2.10;;;1.63;;
75375;SDS011;63958;52.004;5.908;2022-12-22T06:16:20;3.65;;;2.42;;
75375;SDS011;63958;52.004;5.908;2022-12-22T06:18:49;1.77;;;1.45;;
75375;SDS011;63958;52.004;5.908;2022-12-22T06:21:20;4.30;;;3.03;;
75375;SDS011;63958;52.004;5.908;2022-12-22T06:23:49;3.47;;;2.17;;
75375;SDS011;63958;52.004;5.908;2022-12-22T06:26:19;2.40;;;1.83;;
75375;SDS011;63958;52.004;5.908;2022-12-22T06:28:48;4.55;;;3.42;;
75375;SDS011;63958;52.004;5.908;2022-12-22T06:31:17;3.33;;;2.63;;
75375;SDS011;63958;52.004;5.908;2022-12-22T06:33:46;4.45;;;3.00;;
75375;SDS011;63958;52.004;5.908;2022-12-22T06:36:15;3.28;;;2.00;;
75375;SDS011;63958;52.004;5.908;2022-12-22T06:38:47;2.58;;;1.90;;
75375;SDS011;63958;52.004;5.908;2022-12-22T06:41:16;7.00;;;4.72;;
75375;SDS011;63958;52.004;5.908;2022-12-22T06:44:05;5.93;;;4.03;;
75375;SDS011;63958;52.004;5.908;2022-12-22T06:46:31;5.45;;;3.50;;
75375;SDS011;63958;52.004;5.908;2022-12-22T06:49:00;2.97;;;2.25;;
75375;SDS011;63958;52.004;5.908;2022-12-22T06:51:29;4.75;;;3.28;;
75375;SDS011;63958;52.004;5.908;2022-12-22T06:54:01;5.63;;;3.83;;
75375;SDS011;63958;52.004;5.908;2022-12-22T06:56:30;6.40;;;4.93;;
75375;SDS011;63958;52.004;5.908;2022-12-22T06:58:58;4.95;;;3.70;;
75375;SDS011;63958;52.004;5.908;2022-12-22T07:01:27;5.85;;;4.45;;
75375;SDS011;63958;52.004;5.908;2022-12-22T07:03:56;4.50;;;2.97;;
75375;SDS011;63958;52.004;5.908;2022-12-22T07:06:25;5.00;;;3.20;;
75375;SDS011;63958;52.004;5.908;2022-12-22T07:08:54;4.60;;;3.05;;
75375;SDS011;63958;52.004;5.908;2022-12-22T07:11:26;4.72;;;3.42;;
75375;SDS011;63958;52.004;5.908;2022-12-22T07:13:55;3.43;;;2.30;;
75375;SDS011;63958;52.004;5.908;2022-12-22T07:16:24;3.22;;;2.08;;
75375;SDS011;63958;52.004;5.908;2022-12-22T07:18:52;3.00;;;2.00;;
75375;SDS011;63958;52.004;5.908;2022-12-22T07:21:21;3.53;;;2.30;;
75375;SDS011;63958;52.004;5.908;2022-12-22T07:23:50;2.67;;;1.88;;
75375;SDS011;63958;52.004;5.908;2022-12-22T07:26:19;2.58;;;2.00;;
75375;SDS011;63958;52.004;5.908;2022-12-22T07:28:51;3.30;;;2.30;;
75375;SDS011;63958;52.004;5.908;2022-12-22T07:31:20;4.37;;;2.80;;
75375;SDS011;63958;52.004;5.908;2022-12-22T07:33:48;5.88;;;3.60;;
75375;SDS011;63958;52.004;5.908;2022-12-22T07:36:19;6.60;;;4.13;;
75375;SDS011;63958;52.004;5.908;2022-12-22T07:38:48;5.15;;;3.67;;
75375;SDS011;63958;52.004;5.908;2022-12-22T07:41:18;6.18;;;4.22;;
75375;SDS011;63958;52.004;5.908;2022-12-22T07:44:03;4.80;;;3.27;;
75375;SDS011;63958;52.004;5.908;2022-12-22T07:46:33;11.13;;;7.38;;
75375;SDS011;63958;52.004;5.908;2022-12-22T07:49:03;11.98;;;8.77;;
75375;SDS011;63958;52.004;5.908;2022-12-22T07:51:45;9.73;;;6.70;;
75375;SDS011;63958;52.004;5.908;2022-12-22T07:54:15;7.32;;;5.10;;
75375;SDS011;63958;52.004;5.908;2022-12-22T07:56:44;9.68;;;7.32;;
75375;SDS011;63958;52.004;5.908;2022-12-22T07:59:17;7.88;;;5.43;;
75375;SDS011;63958;52.004;5.908;2022-12-22T08:01:46;12.30;;;8.40;;
75375;SDS011;63958;52.004;5.908;2022-12-22T08:04:15;12.88;;;7.65;;
75375;SDS011;63958;52.004;5.908;2022-12-22T08:06:44;11.48;;;7.25;;
75375;SDS011;63958;52.004;5.908;2022-12-22T08:09:15;10.70;;;7.13;;
75375;SDS011;63958;52.004;5.908;2022-12-22T08:11:46;8.65;;;5.70;;
75375;SDS011;63958;52.004;5.908;2022-12-22T08:14:18;7.90;;;5.25;;
75375;SDS011;63958;52.004;5.908;2022-12-22T08:16:47;8.53;;;5.60;;
75375;SDS011;63958;52.004;5.908;2022-12-22T08:19:16;10.88;;;7.25;;
75375;SDS011;63958;52.004;5.908;2022-12-22T08:21:45;8.90;;;5.40;;
75375;SDS011;63958;52.004;5.908;2022-12-22T08:24:14;8.43;;;5.55;;
75375;SDS011;63958;52.004;5.908;2022-12-22T08:26:44;10.60;;;6.68;;
75375;SDS011;63958;52.004;5.908;2022-12-22T08:29:15;9.38;;;5.93;;
75375;SDS011;63958;52.004;5.908;2022-12-22T08:31:51;12.50;;;7.28;;
75375;SDS011;63958;52.004;5.908;2022-12-22T08:34:20;10.90;;;6.43;;
75375;SDS011;63958;52.004;5.908;2022-12-22T08:36:49;7.10;;;4.45;;
75375;SDS011;63958;52.004;5.908;2022-12-22T08:39:22;8.55;;;5.10;;
75375;SDS011;63958;52.004;5.908;2022-12-22T08:41:53;5.35;;;3.55;;
75375;SDS011;63958;52.004;5.908;2022-12-22T08:44:25;12.60;;;8.18;;
75375;SDS011;63958;52.004;5.908;2022-12-22T08:46:56;11.68;;;7.18;;
75375;SDS011;63958;52.004;5.908;2022-12-22T08:49:26;10.05;;;6.00;;
75375;SDS011;63958;52.004;5.908;2022-12-22T08:51:55;7.35;;;4.80;;
75375;SDS011;63958;52.004;5.908;2022-12-22T08:54:24;8.88;;;4.70;;
75375;SDS011;63958;52.004;5.908;2022-12-22T08:56:53;6.72;;;3.60;;
75375;SDS011;63958;52.004;5.908;2022-12-22T08:59:25;6.10;;;4.57;;
75375;SDS011;63958;52.004;5.908;2022-12-22T09:01:54;6.13;;;3.90;;
75375;SDS011;63958;52.004;5.908;2022-12-22T09:04:29;9.20;;;5.93;;
75375;SDS011;63958;52.004;5.908;2022-12-22T09:06:59;8.32;;;4.78;;
75375;SDS011;63958;52.004;5.908;2022-12-22T09:09:29;6.13;;;3.90;;
75375;SDS011;63958;52.004;5.908;2022-12-22T09:12:00;6.32;;;3.90;;
75375;SDS011;63958;52.004;5.908;2022-12-22T09:14:32;10.48;;;6.40;;
75375;SDS011;63958;52.004;5.908;2022-12-22T09:17:01;8.45;;;4.97;;
75375;SDS011;63958;52.004;5.908;2022-12-22T09:19:30;7.40;;;4.60;;
75375;SDS011;63958;52.004;5.908;2022-12-22T09:21:59;10.95;;;6.10;;
75375;SDS011;63958;52.004;5.908;2022-12-22T09:24:28;14.57;;;8.68;;
75375;SDS011;63958;52.004;5.908;2022-12-22T09:26:57;9.65;;;5.70;;
75375;SDS011;63958;52.004;5.908;2022-12-22T09:29:28;10.07;;;5.47;;
75375;SDS011;63958;52.004;5.908;2022-12-22T09:31:59;9.93;;;5.80;;
75375;SDS011;63958;52.004;5.908;2022-12-22T09:34:28;9.33;;;5.27;;
75375;SDS011;63958;52.004;5.908;2022-12-22T09:36:57;9.82;;;5.60;;
75375;SDS011;63958;52.004;5.908;2022-12-22T09:39:26;10.07;;;5.25;;
75375;SDS011;63958;52.004;5.908;2022-12-22T09:41:55;8.00;;;5.03;;
75375;SDS011;63958;52.004;5.908;2022-12-22T09:44:26;10.07;;;5.25;;
75375;SDS011;63958;52.004;5.908;2022-12-22T09:47:00;7.72;;;4.65;;
75375;SDS011;63958;52.004;5.908;2022-12-22T09:49:32;7.97;;;4.25;;
75375;SDS011;63958;52.004;5.908;2022-12-22T09:52:01;9.90;;;4.78;;
75375;SDS011;63958;52.004;5.908;2022-12-22T09:54:31;9.25;;;5.55;;
75375;SDS011;63958;52.004;5.908;2022-12-22T09:57:00;13.60;;;6.88;;
75375;SDS011;63958;52.004;5.908;2022-12-22T09:59:29;10.82;;;5.43;;
75375;SDS011;63958;52.004;5.908;2022-12-22T10:02:13;8.63;;;5.18;;
75375;SDS011;63958;52.004;5.908;2022-12-22T10:04:59;9.15;;;5.22;;
75375;SDS011;63958;52.004;5.908;2022-12-22T10:07:38;7.47;;;4.28;;
75375;SDS011;63958;52.004;5.908;2022-12-22T10:10:14;9.63;;;5.43;;
75375;SDS011;63958;52.004;5.908;2022-12-22T10:12:53;9.80;;;5.75;;
75375;SDS011;63958;52.004;5.908;2022-12-22T10:15:23;7.25;;;4.28;;
75375;SDS011;63958;52.004;5.908;2022-12-22T10:18:07;6.07;;;3.70;;
75375;SDS011;63958;52.004;5.908;2022-12-22T10:20:38;8.10;;;4.63;;
75375;SDS011;63958;52.004;5.908;2022-12-22T10:23:13;8.13;;;4.95;;
75375;SDS011;63958;52.004;5.908;2022-12-22T10:25:57;8.65;;;4.60;;
75375;SDS011;63958;52.004;5.908;2022-12-22T10:28:32;7.13;;;4.00;;
75375;SDS011;63958;52.004;5.908;2022-12-22T10:31:09;8.27;;;3.75;;
75375;SDS011;63958;52.004;5.908;2022-12-22T10:33:44;8.07;;;4.35;;
75375;SDS011;63958;52.004;5.908;2022-12-22T10:36:15;7.78;;;3.83;;
75375;SDS011;63958;52.004;5.908;2022-12-22T10:39:43;7.03;;;3.60;;
75375;SDS011;63958;52.004;5.908;2022-12-22T10:42:13;8.77;;;4.60;;
75375;SDS011;63958;52.004;5.908;2022-12-22T10:44:43;10.02;;;4.70;;
75375;SDS011;63958;52.004;5.908;2022-12-22T10:47:15;9.10;;;5.03;;
75375;SDS011;63958;52.004;5.908;2022-12-22T10:49:48;7.95;;;4.30;;
75375;SDS011;63958;52.004;5.908;2022-12-22T10:52:20;8.77;;;4.75;;
75375;SDS011;63958;52.004;5.908;2022-12-22T10:54:53;13.13;;;7.53;;
75375;SDS011;63958;52.004;5.908;2022-12-22T10:57:43;14.85;;;7.00;;
75375;SDS011;63958;52.004;5.908;2022-12-22T11:00:21;7.18;;;4.13;;
75375;SDS011;63958;52.004;5.908;2022-12-22T11:02:52;10.13;;;5.28;;
75375;SDS011;63958;52.004;5.908;2022-12-22T11:05:22;8.32;;;4.60;;
75375;SDS011;63958;52.004;5.908;2022-12-22T11:07:51;7.65;;;3.80;;
75375;SDS011;63958;52.004;5.908;2022-12-22T11:10:28;5.53;;;3.47;;
75375;SDS011;63958;52.004;5.908;2022-12-22T11:13:13;8.25;;;4.95;;
75375;SDS011;63958;52.004;5.908;2022-12-22T11:16:01;8.68;;;4.70;;
75375;SDS011;63958;52.004;5.908;2022-12-22T11:18:42;6.35;;;3.80;;
75375;SDS011;63958;52.004;5.908;2022-12-22T11:21:24;5.03;;;3.03;;
75375;SDS011;63958;52.004;5.908;2022-12-22T11:24:05;8.80;;;4.32;;
75375;SDS011;63958;52.004;5.908;2022-12-22T11:26:43;5.32;;;3.40;;
75375;SDS011;63958;52.004;5.908;2022-12-22T11:29:27;6.85;;;4.10;;
75375;SDS011;63958;52.004;5.908;2022-12-22T11:32:13;5.10;;;2.97;;
75375;SDS011;63958;52.004;5.908;2022-12-22T11:34:57;10.00;;;5.00;;
75375;SDS011;63958;52.004;5.908;2022-12-22T11:37:36;6.65;;;4.80;;
75375;SDS011;63958;52.004;5.908;2022-12-22T11:40:15;9.38;;;5.57;;
75375;SDS011;63958;52.004;5.908;2022-12-22T11:42:56;7.50;;;3.42;;
75375;SDS011;63958;52.004;5.908;2022-12-22T11:45:42;7.38;;;3.30;;
75375;SDS011;63958;52.004;5.908;2022-12-22T11:48:24;7.45;;;3.80;;
75375;SDS011;63958;52.004;5.908;2022-12-22T11:53:55;24.35;;;12.00;;
75375;SDS011;63958;52.004;5.908;2022-12-22T11:56:34;15.35;;;8.52;;
75375;SDS011;63958;52.004;5.908;2022-12-22T11:59:13;13.98;;;6.57;;
75375;SDS011;63958;52.004;5.908;2022-12-22T12:01:53;10.50;;;6.38;;
75375;SDS011;63958;52.004;5.908;2022-12-22T12:04:59;11.00;;;6.28;;
75375;SDS011;63958;52.004;5.908;2022-12-22T12:07:47;11.07;;;6.38;;
75375;SDS011;63958;52.004;5.908;2022-12-22T12:10:22;15.40;;;8.77;;
75375;SDS011;63958;52.004;5.908;2022-12-22T12:12:55;11.43;;;7.38;;
75375;SDS011;63958;52.004;5.908;2022-12-22T12:15:37;10.32;;;6.47;;
75375;SDS011;63958;52.004;5.908;2022-12-22T12:18:14;9.32;;;5.72;;
75375;SDS011;63958;52.004;5.908;2022-12-22T12:21:08;10.48;;;6.60;;
75375;SDS011;63958;52.004;5.908;2022-12-22T12:24:03;6.78;;;4.38;;
75375;SDS011;63958;52.004;5.908;2022-12-22T12:26:48;8.15;;;4.82;;
75375;SDS011;63958;52.004;5.908;2022-12-22T12:29:27;10.57;;;6.03;;
75375;SDS011;63958;52.004;5.908;2022-12-22T12:32:08;6.80;;;4.65;;
75375;SDS011;63958;52.004;5.908;2022-12-22T12:34:43;10.95;;;5.80;;
75375;SDS011;63958;52.004;5.908;2022-12-22T12:37:18;6.22;;;4.18;;
75375;SDS011;63958;52.004;5.908;2022-12-22T12:39:52;7.50;;;4.68;;
75375;SDS011;63958;52.004;5.908;2022-12-22T12:42:28;7.03;;;4.47;;
75375;SDS011;63958;52.004;5.908;2022-12-22T12:44:59;10.50;;;5.38;;
75375;SDS011;63958;52.004;5.908;2022-12-22T12:47:32;9.35;;;6.50;;
75375;SDS011;63958;52.004;5.908;2022-12-22T12:53:04;8.40;;;5.13;;
75375;SDS011;63958;52.004;5.908;2022-12-22T13:10:22;12.13;;;7.50;;
75375;SDS011;63958;52.004;5.908;2022-12-22T13:12:52;11.75;;;8.13;;
75375;SDS011;63958;52.004;5.908;2022-12-22T13:15:26;11.00;;;6.53;;
75375;SDS011;63958;52.004;5.908;2022-12-22T13:17:57;9.20;;;6.32;;
75375;SDS011;63958;52.004;5.908;2022-12-22T13:20:27;13.90;;;6.93;;
75375;SDS011;63958;52.004;5.908;2022-12-22T13:22:59;9.05;;;6.20;;
75375;SDS011;63958;52.004;5.908;2022-12-22T13:25:38;9.30;;;5.82;;
75375;SDS011;63958;52.004;5.908;2022-12-22T13:28:10;10.02;;;5.63;;
75375;SDS011;63958;52.004;5.908;2022-12-22T13:30:44;11.23;;;6.00;;
75375;SDS011;63958;52.004;5.908;2022-12-22T13:33:15;10.27;;;5.75;;
75375;SDS011;63958;52.004;5.908;2022-12-22T13:35:48;13.13;;;8.25;;
75375;SDS011;63958;52.004;5.908;2022-12-22T13:38:25;14.27;;;10.25;;
75375;SDS011;63958;52.004;5.908;2022-12-22T13:40:58;11.32;;;7.05;;
75375;SDS011;63958;52.004;5.908;2022-12-22T13:43:29;16.88;;;10.65;;
75375;SDS011;63958;52.004;5.908;2022-12-22T13:46:00;11.32;;;7.28;;
75375;SDS011;63958;52.004;5.908;2022-12-22T13:48:33;13.57;;;7.82;;
75375;SDS011;63958;52.004;5.908;2022-12-22T13:51:06;19.00;;;10.30;;
75375;SDS011;63958;52.004;5.908;2022-12-22T13:53:41;12.00;;;7.97;;
75375;SDS011;63958;52.004;5.908;2022-12-22T13:56:15;11.88;;;6.32;;
75375;SDS011;63958;52.004;5.908;2022-12-22T13:58:50;12.52;;;8.73;;
75375;SDS011;63958;52.004;5.908;2022-12-22T14:01:23;10.40;;;6.80;;
75375;SDS011;63958;52.004;5.908;2022-12-22T14:03:52;11.20;;;7.28;;
75375;SDS011;63958;52.004;5.908;2022-12-22T14:06:25;11.43;;;7.22;;
75375;SDS011;63958;52.004;5.908;2022-12-22T14:11:49;10.63;;;6.20;;
75375;SDS011;63958;52.004;5.908;2022-12-22T14:14:21;9.13;;;6.40;;
75375;SDS011;63958;52.004;5.908;2022-12-22T14:16:53;6.90;;;4.57;;
75375;SDS011;63958;52.004;5.908;2022-12-22T14:19:25;9.88;;;6.30;;
75375;SDS011;63958;52.004;5.908;2022-12-22T14:22:01;9.85;;;6.47;;
75375;SDS011;63958;52.004;5.908;2022-12-22T14:24:34;11.57;;;7.22;;
75375;SDS011;63958;52.004;5.908;2022-12-22T14:27:15;8.55;;;5.15;;
75375;SDS011;63958;52.004;5.908;2022-12-22T14:29:46;9.80;;;6.57;;
75375;SDS011;63958;52.004;5.908;2022-12-22T14:32:31;9.10;;;6.43;;
75375;SDS011;63958;52.004;5.908;2022-12-22T14:35:02;12.27;;;7.50;;
75375;SDS011;63958;52.004;5.908;2022-12-22T14:37:32;12.13;;;8.15;;
75375;SDS011;63958;52.004;5.908;2022-12-22T14:40:00;11.77;;;7.63;;
75375;SDS011;63958;52.004;5.908;2022-12-22T14:42:32;10.30;;;6.45;;
75375;SDS011;63958;52.004;5.908;2022-12-22T14:45:01;8.75;;;5.70;;
75375;SDS011;63958;52.004;5.908;2022-12-22T14:47:31;7.30;;;5.35;;
75375;SDS011;63958;52.004;5.908;2022-12-22T14:50:12;9.40;;;6.20;;
75375;SDS011;63958;52.004;5.908;2022-12-22T14:52:44;8.93;;;5.53;;
75375;SDS011;63958;52.004;5.908;2022-12-22T14:55:26;5.97;;;4.38;;
75375;SDS011;63958;52.004;5.908;2022-12-22T14:58:00;6.63;;;4.72;;
75375;SDS011;63958;52.004;5.908;2022-12-22T15:00:32;6.15;;;4.38;;
75375;SDS011;63958;52.004;5.908;2022-12-22T15:03:04;6.70;;;4.43;;
75375;SDS011;63958;52.004;5.908;2022-12-22T15:05:51;7.75;;;5.35;;
75375;SDS011;63958;52.004;5.908;2022-12-22T15:08:34;6.53;;;4.20;;
75375;SDS011;63958;52.004;5.908;2022-12-22T15:11:06;8.25;;;5.32;;
75375;SDS011;63958;52.004;5.908;2022-12-22T15:13:39;7.57;;;5.38;;
75375;SDS011;63958;52.004;5.908;2022-12-22T15:16:11;7.47;;;5.57;;
75375;SDS011;63958;52.004;5.908;2022-12-22T15:18:42;8.60;;;5.53;;
75375;SDS011;63958;52.004;5.908;2022-12-22T15:21:12;11.65;;;7.22;;
75375;SDS011;63958;52.004;5.908;2022-12-22T15:23:43;8.80;;;5.87;;
75375;SDS011;63958;52.004;5.908;2022-12-22T15:26:12;10.63;;;7.57;;
75375;SDS011;63958;52.004;5.908;2022-12-22T15:28:44;10.38;;;7.35;;
75375;SDS011;63958;52.004;5.908;2022-12-22T15:31:13;7.50;;;5.43;;
75375;SDS011;63958;52.004;5.908;2022-12-22T15:33:44;9.30;;;6.50;;
75375;SDS011;63958;52.004;5.908;2022-12-22T15:36:13;8.38;;;5.53;;
75375;SDS011;63958;52.004;5.908;2022-12-22T15:38:42;10.85;;;7.00;;
75375;SDS011;63958;52.004;5.908;2022-12-22T15:41:11;9.65;;;7.07;;
75375;SDS011;63958;52.004;5.908;2022-12-22T15:43:40;9.30;;;6.30;;
75375;SDS011;63958;52.004;5.908;2022-12-22T15:46:13;8.25;;;5.00;;
75375;SDS011;63958;52.004;5.908;2022-12-22T15:48:43;7.43;;;5.32;;
75375;SDS011;63958;52.004;5.908;2022-12-22T15:51:14;7.55;;;5.68;;
75375;SDS011;63958;52.004;5.908;2022-12-22T15:53:48;6.90;;;5.18;;
75375;SDS011;63958;52.004;5.908;2022-12-22T15:56:18;8.93;;;5.57;;